createdAt,value
2023-02-04T00:00:17.962Z,8.32
2023-02-04T00:02:47.287Z,9.05
2023-02-04T00:05:17.412Z,8.96
2023-02-04T00:07:45.208Z,9.25
2023-02-04T00:10:13.003Z,8.76
2023-02-04T00:12:40.801Z,9.22
2023-02-04T00:15:10.699Z,9.15
2023-02-04T00:17:39.373Z,9.08
2023-02-04T00:20:09.516Z,8.86
2023-02-04T00:22:37.310Z,8.80
2023-02-04T00:25:05.510Z,8.67
2023-02-04T00:27:33.359Z,8.73
2023-02-04T00:30:01.603Z,8.67
2023-02-04T00:32:29.334Z,8.73
2023-02-04T00:34:57.102Z,8.69
2023-02-04T00:37:26.215Z,8.63
2023-02-04T00:39:54.060Z,8.44
2023-02-04T00:42:21.870Z,8.58
2023-02-04T00:44:49.701Z,8.33
2023-02-04T00:47:18.130Z,8.66
2023-02-04T00:49:46.041Z,8.29
2023-02-04T00:52:13.819Z,8.66
2023-02-04T00:54:43.525Z,8.59
2023-02-04T00:57:11.299Z,8.08
2023-02-04T00:59:39.165Z,8.13
2023-02-04T01:02:07.028Z,8.36
2023-02-04T01:04:36.224Z,8.18
2023-02-04T01:07:04.051Z,8.63
2023-02-04T01:09:32.052Z,8.62
2023-02-04T01:12:01.191Z,8.22
2023-02-04T01:14:28.985Z,8.75
2023-02-04T01:16:56.785Z,8.33
2023-02-04T01:19:24.546Z,8.73
2023-02-04T01:21:52.382Z,8.74
2023-02-04T01:24:20.154Z,8.87
2023-02-04T01:27:09.539Z,8.99
2023-02-04T01:29:37.360Z,8.98
2023-02-04T01:32:05.268Z,8.57
2023-02-04T01:34:33.129Z,8.44
2023-02-04T01:37:00.902Z,8.59
2023-02-04T01:39:28.660Z,8.52
2023-02-04T01:41:56.489Z,8.54
2023-02-04T01:44:25.773Z,8.71
2023-02-04T01:46:53.631Z,8.75
2023-02-04T01:49:21.850Z,8.95
2023-02-04T01:51:49.740Z,8.94
2023-02-04T01:54:18.503Z,8.65
2023-02-04T01:56:49.051Z,8.90
2023-02-04T01:59:18.791Z,8.61
2023-02-04T02:01:49.550Z,8.63
2023-02-04T02:04:21.338Z,8.61
2023-02-04T02:06:53.839Z,8.85
2023-02-04T02:09:22.102Z,9.02
2023-02-04T02:11:50.123Z,8.78
2023-02-04T02:14:18.274Z,8.79
2023-02-04T02:16:47.507Z,9.14
2023-02-04T02:19:20.487Z,8.81
2023-02-04T02:21:55.405Z,8.69
2023-02-04T02:24:30.459Z,8.59
2023-02-04T02:27:01.653Z,8.65
2023-02-04T02:29:29.630Z,8.50
2023-02-04T02:31:58.635Z,8.53
2023-02-04T02:34:28.484Z,8.56
2023-02-04T02:36:56.803Z,8.87
2023-02-04T02:39:25.542Z,8.70
2023-02-04T02:41:56.016Z,8.44
2023-02-04T02:44:24.859Z,8.46
2023-02-04T02:46:52.991Z,8.42
2023-02-04T02:49:21.611Z,8.87
2023-02-04T02:51:50.065Z,8.93
2023-02-04T02:54:24.116Z,8.87
2023-02-04T02:56:56.273Z,8.80
2023-02-04T02:59:25.934Z,8.25
2023-02-04T03:01:57.950Z,8.37
2023-02-04T03:04:30.120Z,8.42
2023-02-04T03:06:58.030Z,8.72
2023-02-04T03:09:28.292Z,8.83
2023-02-04T03:11:57.577Z,8.68
2023-02-04T03:14:26.118Z,8.79
2023-02-04T03:16:55.896Z,8.73
2023-02-04T03:19:24.688Z,8.79
2023-02-04T03:21:52.799Z,9.02
2023-02-04T03:24:22.778Z,8.67
2023-02-04T03:26:50.620Z,8.41
2023-02-04T03:29:19.823Z,8.53
2023-02-04T03:31:47.806Z,8.50
2023-02-04T03:34:15.631Z,8.22
2023-02-04T03:36:43.404Z,8.43
2023-02-04T03:39:11.163Z,8.52
2023-02-04T03:41:38.902Z,8.65
2023-02-04T03:44:06.633Z,8.86
2023-02-04T03:46:35.878Z,8.79
2023-02-04T03:49:03.744Z,8.48
2023-02-04T03:51:31.472Z,8.74
2023-02-04T03:53:59.278Z,8.38
2023-02-04T03:56:27.053Z,8.76
2023-02-04T03:58:54.792Z,8.49
2023-02-04T04:01:22.590Z,8.75
2023-02-04T04:03:51.707Z,8.42
2023-02-04T04:06:19.488Z,8.20
2023-02-04T04:08:47.274Z,8.75
2023-02-04T04:11:15.403Z,8.64
2023-02-04T04:13:43.276Z,8.39
2023-02-04T04:16:11.041Z,8.43
2023-02-04T04:18:38.884Z,8.42
2023-02-04T04:21:08.199Z,8.23
2023-02-04T04:23:36.055Z,8.52
2023-02-04T04:26:03.820Z,8.25
2023-02-04T04:28:31.644Z,8.11
2023-02-04T04:30:59.558Z,7.97
2023-02-04T04:33:27.539Z,8.36
2023-02-04T04:35:55.372Z,8.52
2023-02-04T04:38:24.649Z,8.35
2023-02-04T04:40:52.469Z,8.47
2023-02-04T04:43:20.952Z,8.23
2023-02-04T04:45:48.851Z,8.13
2023-02-04T04:48:16.690Z,7.93
2023-02-04T04:50:44.403Z,7.96
2023-02-04T04:53:12.171Z,8.00
2023-02-04T04:55:41.474Z,8.47
2023-02-04T04:58:09.672Z,8.35
2023-02-04T05:00:37.480Z,8.53
2023-02-04T05:03:05.235Z,8.48
2023-02-04T05:05:34.038Z,8.14
2023-02-04T05:08:01.824Z,8.60
2023-02-04T05:10:29.762Z,9.00
2023-02-04T05:12:59.242Z,9.01
2023-02-04T05:15:27.097Z,9.11
2023-02-04T05:17:54.873Z,8.86
2023-02-04T05:20:22.760Z,8.37
2023-02-04T05:22:51.003Z,8.45
2023-02-04T05:25:18.865Z,8.63
2023-02-04T05:27:46.920Z,8.37
2023-02-04T05:30:16.597Z,8.22
2023-02-04T05:32:44.418Z,8.24
2023-02-04T05:35:12.300Z,8.12
2023-02-04T05:37:40.040Z,8.34
2023-02-04T05:40:09.028Z,8.60
2023-02-04T05:42:36.753Z,8.35
2023-02-04T05:45:04.925Z,8.39
2023-02-04T05:47:34.182Z,8.43
2023-02-04T05:50:01.918Z,8.62
2023-02-04T05:52:29.880Z,8.51
2023-02-04T05:54:57.673Z,8.51
2023-02-04T05:57:25.553Z,8.81
2023-02-04T05:59:53.336Z,8.35
2023-02-04T06:02:22.194Z,8.32
2023-02-04T06:04:51.347Z,8.34
2023-02-04T06:07:19.139Z,8.04
2023-02-04T06:09:46.867Z,8.80
2023-02-04T06:12:14.602Z,8.57
2023-02-04T06:14:42.371Z,8.95
2023-02-04T06:17:10.299Z,8.87
2023-02-04T06:19:38.284Z,8.90
2023-02-04T06:22:07.630Z,8.57
2023-02-04T06:24:36.039Z,8.74
2023-02-04T06:27:03.956Z,9.03
2023-02-04T06:29:31.761Z,8.86
2023-02-04T06:31:59.583Z,9.01
2023-02-04T06:34:27.400Z,9.12
2023-02-04T06:36:55.124Z,8.70
2023-02-04T06:39:24.396Z,8.80
2023-02-04T06:41:52.173Z,8.69
2023-02-04T06:44:19.939Z,8.90
2023-02-04T06:46:47.689Z,8.61
2023-02-04T06:49:15.474Z,8.69
2023-02-04T06:51:43.264Z,8.95
2023-02-04T06:54:11.211Z,8.97
2023-02-04T06:56:40.346Z,8.74
2023-02-04T06:59:08.070Z,8.72
2023-02-04T07:01:35.826Z,8.92
2023-02-04T07:04:03.643Z,8.94
2023-02-04T07:06:31.373Z,8.80
2023-02-04T07:08:59.138Z,8.84
2023-02-04T07:11:26.900Z,8.68
2023-02-04T07:13:56.049Z,8.76
2023-02-04T07:16:23.794Z,8.93
2023-02-04T07:18:51.518Z,8.77
2023-02-04T07:21:19.258Z,8.92
2023-02-04T07:23:47.026Z,8.89
2023-02-04T07:26:14.789Z,8.97
2023-02-04T07:28:43.489Z,8.97
2023-02-04T07:31:12.673Z,9.02
2023-02-04T07:33:40.472Z,9.10
2023-02-04T07:36:08.916Z,9.23
2023-02-04T07:38:36.740Z,9.29
2023-02-04T07:41:04.553Z,9.14
2023-02-04T07:43:32.405Z,9.25
2023-02-04T07:46:00.218Z,9.17
2023-02-04T07:48:29.343Z,8.95
2023-02-04T07:50:57.118Z,9.01
2023-02-04T07:53:24.858Z,9.35
2023-02-04T07:55:52.637Z,9.30
2023-02-04T07:58:20.496Z,9.34
2023-02-04T08:00:48.281Z,9.40
2023-02-04T08:03:16.057Z,9.35
2023-02-04T08:05:45.271Z,9.82
2023-02-04T08:08:13.145Z,9.70
2023-02-04T08:10:41.001Z,9.65
2023-02-04T08:13:08.911Z,9.50
2023-02-04T08:15:36.744Z,9.86
2023-02-04T08:18:04.924Z,9.76
2023-02-04T08:20:33.080Z,10.18
2023-02-04T08:23:03.235Z,9.87
2023-02-04T08:25:31.132Z,9.50
2023-02-04T08:27:58.899Z,9.08
2023-02-04T08:30:27.074Z,9.29
2023-02-04T08:32:54.848Z,9.78
2023-02-04T08:35:22.665Z,9.23
2023-02-04T08:37:50.448Z,9.11
2023-02-04T08:40:20.607Z,9.04
2023-02-04T08:42:48.649Z,9.28
2023-02-04T08:45:16.567Z,9.35
2023-02-04T08:47:44.371Z,9.62
2023-02-04T08:50:12.476Z,9.37
2023-02-04T08:52:40.386Z,9.65
2023-02-04T08:55:09.715Z,9.52
2023-02-04T08:57:38.903Z,9.56
2023-02-04T09:00:08.066Z,9.51
2023-02-04T09:02:35.879Z,9.76
2023-02-04T09:05:04.191Z,9.92
2023-02-04T09:07:31.942Z,9.28
2023-02-04T09:09:59.679Z,9.55
2023-02-04T09:12:27.524Z,9.86
2023-02-04T09:14:56.751Z,10.35
2023-02-04T09:17:24.591Z,10.31
2023-02-04T09:19:52.332Z,10.20
2023-02-04T09:22:20.120Z,10.30
2023-02-04T09:24:47.904Z,10.14
2023-02-04T09:27:15.646Z,10.30
2023-02-04T09:29:43.480Z,9.79
2023-02-04T09:32:12.704Z,10.38
2023-02-04T09:34:40.583Z,10.59
2023-02-04T09:37:08.579Z,11.02
2023-02-04T09:39:36.353Z,11.11
2023-02-04T09:42:04.343Z,10.63
2023-02-04T09:44:32.193Z,11.38
2023-02-04T09:47:01.952Z,11.61
2023-02-04T09:49:31.264Z,11.52
2023-02-04T09:52:00.338Z,11.74
2023-02-04T09:54:28.274Z,10.92
2023-02-04T09:56:57.457Z,11.05
2023-02-04T09:59:28.403Z,11.06
2023-02-04T10:02:00.885Z,10.78
2023-02-04T10:04:29.617Z,11.24
2023-02-04T10:06:59.519Z,11.11
2023-02-04T10:09:27.747Z,11.29
2023-02-04T10:11:55.727Z,11.64
2023-02-04T10:14:24.463Z,11.46
2023-02-04T10:16:59.107Z,11.24
2023-02-04T10:19:29.770Z,11.77
2023-02-04T10:21:59.425Z,11.55
2023-02-04T10:24:30.556Z,11.28
2023-02-04T10:27:08.696Z,11.47
2023-02-04T10:29:36.664Z,11.49
2023-02-04T10:32:05.064Z,11.69
2023-02-04T10:34:37.861Z,11.58
2023-02-04T10:37:20.490Z,11.12
2023-02-04T10:39:49.698Z,11.39
2023-02-04T10:42:22.932Z,11.69
2023-02-04T10:44:51.408Z,11.70
2023-02-04T10:47:21.521Z,12.29
2023-02-04T10:49:58.645Z,12.07
2023-02-04T10:52:35.170Z,11.69
2023-02-04T10:55:04.994Z,12.19
2023-02-04T10:57:36.144Z,11.97
2023-02-04T11:00:05.737Z,12.37
2023-02-04T11:02:43.302Z,11.80
2023-02-04T11:05:17.424Z,11.94
2023-02-04T11:07:49.409Z,12.12
2023-02-04T11:10:20.345Z,13.69
2023-02-04T11:13:00.688Z,12.14
2023-02-04T11:15:49.869Z,11.67
2023-02-04T11:18:31.175Z,11.16
2023-02-04T11:21:00.347Z,11.20
2023-02-04T11:23:36.267Z,11.25
2023-02-04T11:26:13.233Z,11.30
2023-02-04T11:29:04.378Z,10.77
2023-02-04T11:31:45.642Z,11.30
2023-02-04T11:34:28.906Z,10.96
2023-02-04T11:37:05.454Z,11.75
2023-02-04T11:39:38.324Z,12.04
2023-02-04T11:42:06.912Z,12.25
2023-02-04T11:44:35.215Z,12.85
2023-02-04T11:47:08.443Z,12.95
2023-02-04T11:49:37.946Z,12.86
2023-02-04T11:52:08.765Z,12.26
2023-02-04T11:54:38.034Z,12.01
2023-02-04T11:57:05.862Z,12.66
2023-02-04T11:59:33.830Z,12.88
2023-02-04T12:02:06.195Z,12.61
2023-02-04T12:04:34.084Z,12.34
2023-02-04T12:07:03.835Z,11.60
2023-02-04T12:09:32.780Z,11.80
2023-02-04T12:12:03.900Z,11.75
2023-02-04T12:14:34.520Z,11.40
2023-02-04T12:17:02.324Z,12.08
2023-02-04T12:19:30.153Z,12.12
2023-02-04T12:21:57.914Z,11.73
2023-02-04T12:24:25.726Z,12.57
2023-02-04T12:26:53.518Z,12.57
2023-02-04T12:29:22.658Z,12.69
2023-02-04T12:31:50.516Z,13.16
2023-02-04T12:34:18.406Z,12.92
2023-02-04T12:36:46.147Z,12.69
2023-02-04T12:39:14.036Z,13.27
2023-02-04T12:41:41.891Z,13.49
2023-02-04T12:44:09.656Z,13.58
2023-02-04T12:46:39.935Z,12.52
2023-02-04T12:49:09.607Z,12.83
2023-02-04T12:51:37.474Z,12.38
2023-02-04T12:54:05.611Z,12.43
2023-02-04T12:56:33.358Z,13.14
2023-02-04T12:59:01.212Z,13.12
2023-02-04T13:01:29.008Z,12.76
2023-02-04T13:03:58.111Z,12.75
2023-02-04T13:06:25.987Z,12.51
2023-02-04T13:08:53.728Z,12.19
2023-02-04T13:11:21.627Z,12.23
2023-02-04T13:13:49.438Z,12.88
2023-02-04T13:16:19.307Z,12.88
2023-02-04T13:18:47.112Z,13.34
2023-02-04T13:21:16.198Z,13.09
2023-02-04T13:23:44.116Z,12.63
2023-02-04T13:26:11.916Z,13.01
2023-02-04T13:28:39.675Z,12.77
2023-02-04T13:31:07.599Z,12.43
2023-02-04T13:33:35.440Z,12.98
2023-02-04T13:36:03.301Z,12.40
2023-02-04T13:38:32.417Z,12.62
2023-02-04T13:41:00.214Z,12.37
2023-02-04T13:43:27.973Z,12.75
2023-02-04T13:45:57.730Z,12.78
2023-02-04T13:48:25.947Z,12.65
2023-02-04T13:50:53.703Z,12.43
2023-02-04T13:53:21.484Z,12.70
2023-02-04T13:55:50.676Z,12.88
2023-02-04T13:58:18.470Z,12.70
2023-02-04T14:00:46.251Z,12.44
2023-02-04T14:03:14.082Z,12.11
2023-02-04T14:05:42.024Z,12.07
2023-02-04T14:08:09.895Z,12.13
2023-02-04T14:10:38.827Z,11.68
2023-02-04T14:13:08.220Z,11.88
2023-02-04T14:15:37.644Z,11.54
2023-02-04T14:18:05.726Z,11.82
2023-02-04T14:20:33.937Z,11.99
2023-02-04T14:23:01.925Z,11.60
2023-02-04T14:25:29.779Z,12.25
2023-02-04T14:28:00.004Z,12.14
2023-02-04T14:30:30.699Z,11.95
2023-02-04T14:32:59.107Z,12.25
2023-02-04T14:35:27.256Z,11.92
2023-02-04T14:37:55.167Z,11.49
2023-02-04T14:40:23.126Z,12.34
2023-02-04T14:42:50.944Z,12.32
2023-02-04T14:45:18.976Z,12.22
2023-02-04T14:47:48.264Z,12.28
2023-02-04T14:50:17.670Z,11.93
2023-02-04T14:52:45.499Z,12.41
2023-02-04T14:55:14.429Z,12.15
2023-02-04T14:57:42.321Z,12.73
2023-02-04T15:00:11.484Z,13.03
2023-02-04T15:02:40.182Z,12.70
2023-02-04T15:05:10.229Z,12.94
2023-02-04T15:07:38.788Z,12.48
2023-02-04T15:10:07.672Z,12.38
2023-02-04T15:12:35.627Z,12.88
2023-02-04T15:15:03.469Z,13.70
2023-02-04T15:17:31.318Z,14.88
2023-02-04T15:19:59.209Z,15.24
2023-02-04T15:22:28.309Z,15.04
2023-02-04T15:24:56.160Z,14.39
2023-02-04T15:27:24.391Z,14.22
2023-02-04T15:29:52.164Z,13.94
2023-02-04T15:32:19.981Z,13.37
2023-02-04T15:34:47.751Z,13.23
2023-02-04T15:37:16.048Z,13.06
2023-02-04T15:39:45.219Z,12.98
2023-02-04T15:42:13.093Z,12.35
2023-02-04T15:44:40.968Z,12.22
2023-02-04T15:47:08.830Z,11.90
2023-02-04T15:49:36.742Z,11.88
2023-02-04T15:52:08.887Z,11.87
2023-02-04T15:54:40.074Z,11.48
2023-02-04T15:57:09.345Z,11.37
2023-02-04T15:59:37.217Z,10.91
2023-02-04T16:02:04.992Z,10.82
2023-02-04T16:04:32.785Z,10.53
2023-02-04T16:07:00.838Z,10.78
2023-02-04T16:09:28.611Z,10.47
2023-02-04T16:11:56.451Z,9.96
2023-02-04T16:14:25.655Z,10.02
2023-02-04T16:16:53.503Z,9.64
2023-02-04T16:19:21.320Z,9.98
2023-02-04T16:21:49.095Z,9.81
2023-02-04T16:24:18.467Z,9.50
2023-02-04T16:26:46.455Z,8.92
2023-02-04T16:29:14.331Z,9.03
2023-02-04T16:31:43.539Z,9.42
2023-02-04T16:34:11.340Z,9.28
2023-02-04T16:36:39.095Z,8.99
2023-02-04T16:39:06.956Z,9.08
2023-02-04T16:41:34.776Z,8.66
2023-02-04T16:44:02.619Z,8.58
2023-02-04T16:46:33.581Z,8.88
2023-02-04T16:49:04.950Z,8.79
2023-02-04T16:51:32.777Z,8.46
2023-02-04T16:54:00.581Z,8.23
2023-02-04T16:56:35.058Z,8.47
2023-02-04T16:59:03.375Z,8.16
2023-02-04T17:01:31.809Z,8.45
2023-02-04T17:03:59.605Z,8.27
2023-02-04T17:06:30.438Z,8.15
2023-02-04T17:08:58.250Z,8.19
2023-02-04T17:11:29.882Z,8.13
2023-02-04T17:13:58.325Z,7.83
2023-02-04T17:16:26.462Z,7.89
2023-02-04T17:18:54.983Z,7.94
2023-02-04T17:21:23.013Z,7.86
2023-02-04T17:23:52.214Z,7.80
2023-02-04T17:26:20.479Z,7.77
2023-02-04T17:28:48.330Z,7.86
2023-02-04T17:31:16.187Z,7.97
2023-02-04T17:33:43.999Z,8.09
2023-02-04T17:36:13.698Z,7.83
2023-02-04T17:38:41.467Z,8.17
2023-02-04T17:41:10.677Z,8.11
2023-02-04T17:43:38.525Z,8.04
2023-02-04T17:46:06.472Z,7.87
2023-02-04T17:48:34.633Z,7.65
2023-02-04T17:51:02.443Z,7.79
2023-02-04T17:53:30.826Z,8.03
2023-02-04T17:55:58.658Z,7.97
2023-02-04T17:58:30.866Z,7.99
2023-02-04T18:01:00.226Z,7.93
2023-02-04T18:03:30.389Z,8.21
2023-02-04T18:05:58.451Z,8.26
2023-02-04T18:08:31.727Z,8.03
2023-02-04T18:10:59.750Z,7.76
2023-02-04T18:13:32.811Z,7.48
2023-02-04T18:16:02.831Z,7.38
2023-02-04T18:18:35.821Z,7.45
2023-02-04T18:21:17.906Z,7.61
2023-02-04T18:23:46.400Z,7.63
2023-02-04T18:26:18.893Z,7.66
2023-02-04T18:28:49.666Z,7.44
2023-02-04T18:31:34.038Z,7.27
2023-02-04T18:34:02.516Z,7.34
2023-02-04T18:36:33.398Z,7.49
2023-02-04T18:39:14.025Z,6.99
2023-02-04T18:41:45.024Z,6.87
2023-02-04T18:44:31.343Z,6.90
2023-02-04T18:47:00.623Z,6.50
2023-02-04T18:49:29.564Z,6.35
2023-02-04T18:51:59.608Z,6.20
2023-02-04T18:54:30.765Z,6.25
2023-02-04T18:57:28.721Z,5.92
2023-02-04T19:00:23.620Z,6.20
2023-02-04T19:02:54.926Z,6.30
2023-02-04T19:05:34.425Z,6.43
2023-02-04T19:08:22.549Z,6.69
2023-02-04T19:10:51.406Z,6.71
2023-02-04T19:13:22.131Z,6.40
2023-02-04T19:16:04.148Z,6.46
2023-02-04T19:18:38.314Z,6.17
2023-02-04T19:21:22.700Z,6.34
2023-02-04T19:23:52.085Z,6.12
2023-02-04T19:26:36.699Z,6.39
2023-02-04T19:29:43.055Z,6.24
2023-02-04T19:32:45.321Z,6.09
2023-02-04T19:35:19.763Z,6.08
2023-02-04T19:37:54.532Z,5.96
2023-02-04T19:40:29.832Z,5.76
2023-02-04T19:43:16.800Z,5.77
2023-02-04T19:45:46.447Z,5.91
2023-02-04T19:48:22.619Z,5.83
2023-02-04T19:50:53.625Z,5.61
2023-02-04T19:53:22.829Z,5.86
2023-02-04T19:55:52.546Z,5.37
2023-02-04T19:58:22.613Z,5.41
2023-02-04T20:00:57.476Z,5.53
2023-02-04T20:03:35.847Z,5.72
2023-02-04T20:06:30.162Z,5.67
2023-02-04T20:09:02.643Z,5.72
2023-02-04T20:11:44.978Z,5.72
2023-02-04T20:14:24.213Z,5.64
2023-02-04T20:16:54.146Z,5.52
2023-02-04T20:19:28.918Z,5.97
2023-02-04T20:22:05.544Z,5.85
2023-02-04T20:24:36.812Z,5.75
2023-02-04T20:27:17.960Z,5.73
2023-02-04T20:29:46.120Z,5.60
2023-02-04T20:32:21.297Z,5.68
2023-02-04T20:34:50.460Z,5.79
2023-02-04T20:37:26.786Z,6.09
2023-02-04T20:39:55.174Z,5.81
2023-02-04T20:42:34.797Z,6.04
2023-02-04T20:45:27.702Z,6.04
2023-02-04T20:47:59.942Z,5.93
2023-02-04T20:50:38.122Z,6.10
2023-02-04T20:53:08.808Z,6.25
2023-02-04T20:55:39.494Z,6.09
2023-02-04T20:58:16.811Z,6.17
2023-02-04T21:00:46.091Z,6.20
2023-02-04T21:03:26.500Z,6.18
2023-02-04T21:05:57.263Z,6.41
2023-02-04T21:08:29.366Z,6.35
2023-02-04T21:10:58.033Z,6.25
2023-02-04T21:13:26.623Z,6.07
2023-02-04T21:15:54.800Z,6.21
2023-02-04T21:18:22.870Z,6.50
2023-02-04T21:20:50.639Z,6.29
2023-02-04T21:23:20.232Z,6.46
2023-02-04T21:25:48.201Z,6.27
2023-02-04T21:28:16.215Z,6.15
2023-02-04T21:30:44.136Z,6.50
2023-02-04T21:33:12.032Z,6.67
2023-02-04T21:35:40.178Z,6.70
2023-02-04T21:38:08.708Z,6.83
2023-02-04T21:40:38.963Z,6.68
2023-02-04T21:43:08.163Z,6.36
2023-02-04T21:45:37.276Z,6.67
2023-02-04T21:48:05.929Z,6.80
2023-02-04T21:50:34.330Z,7.04
2023-02-04T21:53:02.212Z,6.67
2023-02-04T21:55:30.114Z,6.78
2023-02-04T21:57:59.325Z,6.98
2023-02-04T22:00:35.691Z,7.14
2023-02-04T22:03:03.664Z,7.32
2023-02-04T22:05:31.582Z,6.99
2023-02-04T22:07:59.963Z,6.81
2023-02-04T22:10:27.853Z,7.21
2023-02-04T22:12:55.878Z,7.11
2023-02-04T22:15:24.304Z,6.85
2023-02-04T22:17:54.456Z,6.91
2023-02-04T22:20:25.217Z,6.97
2023-02-04T22:22:53.822Z,6.93
2023-02-04T22:25:22.298Z,7.00
2023-02-04T22:27:50.527Z,6.81
2023-02-04T22:30:19.858Z,6.80
2023-02-04T22:32:47.927Z,6.90
2023-02-04T22:35:17.328Z,7.13
2023-02-04T22:37:45.123Z,7.02
2023-02-04T22:40:13.745Z,6.66
2023-02-04T22:42:41.832Z,6.97
2023-02-04T22:45:11.220Z,7.31
2023-02-04T22:47:39.538Z,7.23
2023-02-04T22:50:08.203Z,7.22
2023-02-04T22:52:37.438Z,7.10
2023-02-04T22:55:05.877Z,7.13
2023-02-04T22:57:33.627Z,7.15
2023-02-04T23:00:01.415Z,7.07
2023-02-04T23:02:29.224Z,7.02
2023-02-04T23:04:57.145Z,6.97
2023-02-04T23:07:24.944Z,7.06
2023-02-04T23:09:54.111Z,6.93
2023-02-04T23:12:21.863Z,7.09
2023-02-04T23:14:50.105Z,7.15
2023-02-04T23:17:19.156Z,7.36
2023-02-04T23:19:47.108Z,7.43
2023-02-04T23:22:15.636Z,7.04
2023-02-04T23:24:44.287Z,6.89
2023-02-04T23:27:13.793Z,6.48
2023-02-04T23:29:41.778Z,7.05
2023-02-04T23:32:10.206Z,6.82
2023-02-04T23:34:38.076Z,7.15
2023-02-04T23:37:05.910Z,7.00
2023-02-04T23:39:34.175Z,6.74
2023-02-04T23:42:02.014Z,6.94
2023-02-04T23:44:31.228Z,7.11
2023-02-04T23:46:59.161Z,7.37
2023-02-04T23:49:26.927Z,6.96
2023-02-04T23:51:54.754Z,6.75
2023-02-04T23:54:23.609Z,7.06
2023-02-04T23:56:52.024Z,7.28
2023-02-04T23:59:19.975Z,7.29
